sensor_id;sensor_type;location;lat;lon;timestamp;temperature;humidity
38167;DHT22;23980;51.902;12.832;2022-09-03T00:00:21;14.60;53.20
38167;DHT22;23980;51.902;12.832;2022-09-03T00:05:45;14.50;52.90
38167;DHT22;23980;51.902;12.832;2022-09-03T00:11:20;14.50;53.20
38167;DHT22;23980;51.902;12.832;2022-09-03T00:16:27;14.40;53.20
38167;DHT22;23980;51.902;12.832;2022-09-03T00:21:50;14.40;53.00
38167;DHT22;23980;51.902;12.832;2022-09-03T00:26:56;14.30;53.20
38167;DHT22;23980;51.902;12.832;2022-09-03T00:32:28;14.30;53.00
38167;DHT22;23980;51.902;12.832;2022-09-03T00:37:40;14.20;53.10
38167;DHT22;23980;51.902;12.832;2022-09-03T00:42:57;14.20;53.10
38167;DHT22;23980;51.902;12.832;2022-09-03T00:48:36;14.10;53.20
38167;DHT22;23980;51.902;12.832;2022-09-03T00:54:09;14.10;53.20
38167;DHT22;23980;51.902;12.832;2022-09-03T01:09:54;14.00;53.20
38167;DHT22;23980;51.902;12.832;2022-09-03T01:15:08;13.90;53.10
38167;DHT22;23980;51.902;12.832;2022-09-03T01:20:22;13.90;53.20
38167;DHT22;23980;51.902;12.832;2022-09-03T01:36:51;13.70;53.30
38167;DHT22;23980;51.902;12.832;2022-09-03T01:42:52;13.70;53.30
38167;DHT22;23980;51.902;12.832;2022-09-03T01:48:13;13.60;53.30
38167;DHT22;23980;51.902;12.832;2022-09-03T01:59:02;13.50;53.40
38167;DHT22;23980;51.902;12.832;2022-09-03T02:04:24;13.50;53.20
38167;DHT22;23980;51.902;12.832;2022-09-03T02:09:26;13.40;53.40
38167;DHT22;23980;51.902;12.832;2022-09-03T02:14:27;13.40;53.20
38167;DHT22;23980;51.902;12.832;2022-09-03T02:19:29;13.40;53.20
38167;DHT22;23980;51.902;12.832;2022-09-03T02:24:31;13.30;53.20
38167;DHT22;23980;51.902;12.832;2022-09-03T02:29:32;13.30;53.20
38167;DHT22;23980;51.902;12.832;2022-09-03T02:34:35;13.30;53.20
38167;DHT22;23980;51.902;12.832;2022-09-03T02:39:35;13.20;53.30
38167;DHT22;23980;51.902;12.832;2022-09-03T02:44:43;13.20;53.30
38167;DHT22;23980;51.902;12.832;2022-09-03T02:49:47;13.20;53.40
38167;DHT22;23980;51.902;12.832;2022-09-03T02:54:48;13.10;53.30
38167;DHT22;23980;51.902;12.832;2022-09-03T02:59:49;13.10;53.40
38167;DHT22;23980;51.902;12.832;2022-09-03T03:05:05;13.10;53.40
38167;DHT22;23980;51.902;12.832;2022-09-03T03:10:08;13.00;53.60
38167;DHT22;23980;51.902;12.832;2022-09-03T03:15:08;13.00;53.30
38167;DHT22;23980;51.902;12.832;2022-09-03T03:20:09;12.90;53.40
38167;DHT22;23980;51.902;12.832;2022-09-03T03:25:10;12.90;53.40
38167;DHT22;23980;51.902;12.832;2022-09-03T03:30:11;12.80;53.40
38167;DHT22;23980;51.902;12.832;2022-09-03T03:35:12;12.80;53.40
38167;DHT22;23980;51.902;12.832;2022-09-03T03:40:13;12.70;53.50
38167;DHT22;23980;51.902;12.832;2022-09-03T03:45:18;12.70;53.50
38167;DHT22;23980;51.902;12.832;2022-09-03T03:50:18;12.60;53.70
38167;DHT22;23980;51.902;12.832;2022-09-03T03:55:27;12.60;53.60
38167;DHT22;23980;51.902;12.832;2022-09-03T04:00:27;12.50;53.90
38167;DHT22;23980;51.902;12.832;2022-09-03T04:05:39;12.60;53.70
38167;DHT22;23980;51.902;12.832;2022-09-03T04:10:40;12.50;54.00
38167;DHT22;23980;51.902;12.832;2022-09-03T04:15:40;12.50;53.70
38167;DHT22;23980;51.902;12.832;2022-09-03T04:20:51;12.50;53.80
38167;DHT22;23980;51.902;12.832;2022-09-03T04:25:52;12.50;54.00
38167;DHT22;23980;51.902;12.832;2022-09-03T04:30:53;12.50;53.70
38167;DHT22;23980;51.902;12.832;2022-09-03T04:36:14;12.40;53.70
38167;DHT22;23980;51.902;12.832;2022-09-03T04:41:18;12.40;53.90
38167;DHT22;23980;51.902;12.832;2022-09-03T04:46:20;12.40;53.80
38167;DHT22;23980;51.902;12.832;2022-09-03T04:51:23;12.40;53.80
38167;DHT22;23980;51.902;12.832;2022-09-03T04:56:40;12.40;53.80
38167;DHT22;23980;51.902;12.832;2022-09-03T05:01:42;12.40;54.20
38167;DHT22;23980;51.902;12.832;2022-09-03T05:06:42;12.40;53.90
38167;DHT22;23980;51.902;12.832;2022-09-03T05:11:44;12.40;53.90
38167;DHT22;23980;51.902;12.832;2022-09-03T05:16:46;12.40;53.90
38167;DHT22;23980;51.902;12.832;2022-09-03T05:22:01;12.40;54.00
38167;DHT22;23980;51.902;12.832;2022-09-03T05:27:02;12.50;55.00
38167;DHT22;23980;51.902;12.832;2022-09-03T05:32:03;12.60;54.20
38167;DHT22;23980;51.902;12.832;2022-09-03T05:37:04;12.70;54.20
38167;DHT22;23980;51.902;12.832;2022-09-03T05:42:10;12.80;54.20
38167;DHT22;23980;51.902;12.832;2022-09-03T05:47:11;12.80;54.30
38167;DHT22;23980;51.902;12.832;2022-09-03T05:52:13;12.90;54.30
38167;DHT22;23980;51.902;12.832;2022-09-03T05:57:14;13.00;54.30
38167;DHT22;23980;51.902;12.832;2022-09-03T06:02:22;13.10;54.30
38167;DHT22;23980;51.902;12.832;2022-09-03T06:07:24;13.10;54.50
38167;DHT22;23980;51.902;12.832;2022-09-03T06:12:25;13.20;54.30
38167;DHT22;23980;51.902;12.832;2022-09-03T06:17:25;13.30;54.40
38167;DHT22;23980;51.902;12.832;2022-09-03T06:22:26;13.40;54.40
38167;DHT22;23980;51.902;12.832;2022-09-03T06:27:29;13.50;54.40
38167;DHT22;23980;51.902;12.832;2022-09-03T06:32:32;13.50;54.30
38167;DHT22;23980;51.902;12.832;2022-09-03T06:37:38;13.60;54.40
38167;DHT22;23980;51.902;12.832;2022-09-03T06:42:55;13.70;54.40
38167;DHT22;23980;51.902;12.832;2022-09-03T06:48:01;13.70;54.60
38167;DHT22;23980;51.902;12.832;2022-09-03T06:53:02;13.70;54.80
38167;DHT22;23980;51.902;12.832;2022-09-03T06:58:03;13.80;54.40
38167;DHT22;23980;51.902;12.832;2022-09-03T07:03:03;13.90;54.40
38167;DHT22;23980;51.902;12.832;2022-09-03T07:08:05;13.90;54.50
38167;DHT22;23980;51.902;12.832;2022-09-03T07:13:13;14.00;54.60
38167;DHT22;23980;51.902;12.832;2022-09-03T07:18:14;14.10;54.80
38167;DHT22;23980;51.902;12.832;2022-09-03T07:23:16;14.20;54.60
38167;DHT22;23980;51.902;12.832;2022-09-03T07:28:17;14.30;54.80
38167;DHT22;23980;51.902;12.832;2022-09-03T07:33:36;14.40;54.80
38167;DHT22;23980;51.902;12.832;2022-09-03T07:38:42;14.60;55.20
38167;DHT22;23980;51.902;12.832;2022-09-03T07:43:46;14.70;55.50
38167;DHT22;23980;51.902;12.832;2022-09-03T07:48:58;14.80;55.00
38167;DHT22;23980;51.902;12.832;2022-09-03T07:54:00;15.10;55.30
38167;DHT22;23980;51.902;12.832;2022-09-03T07:59:02;15.30;55.20
38167;DHT22;23980;51.902;12.832;2022-09-03T08:04:03;15.50;55.10
38167;DHT22;23980;51.902;12.832;2022-09-03T08:09:16;15.60;55.10
38167;DHT22;23980;51.902;12.832;2022-09-03T08:14:18;15.70;55.30
38167;DHT22;23980;51.902;12.832;2022-09-03T08:19:26;15.80;55.00
38167;DHT22;23980;51.902;12.832;2022-09-03T08:24:26;15.90;55.10
38167;DHT22;23980;51.902;12.832;2022-09-03T08:29:28;16.10;55.00
38167;DHT22;23980;51.902;12.832;2022-09-03T08:34:29;16.20;55.00
38167;DHT22;23980;51.902;12.832;2022-09-03T08:39:30;16.40;55.00
38167;DHT22;23980;51.902;12.832;2022-09-03T08:44:57;16.60;55.00
38167;DHT22;23980;51.902;12.832;2022-09-03T08:50:10;16.70;55.10
38167;DHT22;23980;51.902;12.832;2022-09-03T08:55:24;16.90;55.40
38167;DHT22;23980;51.902;12.832;2022-09-03T09:06:13;17.30;55.00
38167;DHT22;23980;51.902;12.832;2022-09-03T09:11:35;17.60;55.00
38167;DHT22;23980;51.902;12.832;2022-09-03T09:16:49;17.90;54.90
38167;DHT22;23980;51.902;12.832;2022-09-03T09:22:15;18.10;54.60
38167;DHT22;23980;51.902;12.832;2022-09-03T12:28:00;35.30;58.10
38167;DHT22;23980;51.902;12.832;2022-09-03T12:33:07;28.20;52.00
38167;DHT22;23980;51.902;12.832;2022-09-03T12:38:12;28.20;52.90
38167;DHT22;23980;51.902;12.832;2022-09-03T12:43:16;28.00;52.00
38167;DHT22;23980;51.902;12.832;2022-09-03T14:22:25;29.20;50.90
38167;DHT22;23980;51.902;12.832;2022-09-03T14:27:30;28.70;50.10
38167;DHT22;23980;51.902;12.832;2022-09-03T15:10:35;27.60;52.20
38167;DHT22;23980;51.902;12.832;2022-09-03T15:21:06;27.10;50.30
38167;DHT22;23980;51.902;12.832;2022-09-03T15:36:52;26.40;51.00
38167;DHT22;23980;51.902;12.832;2022-09-03T15:46:58;26.20;50.60
38167;DHT22;23980;51.902;12.832;2022-09-03T15:52:14;26.00;50.50
38167;DHT22;23980;51.902;12.832;2022-09-03T15:57:20;25.80;50.40
38167;DHT22;23980;51.902;12.832;2022-09-03T16:13:28;25.30;50.50
38167;DHT22;23980;51.902;12.832;2022-09-03T16:18:58;25.00;50.50
38167;DHT22;23980;51.902;12.832;2022-09-03T16:24:17;24.70;50.40
38167;DHT22;23980;51.902;12.832;2022-09-03T16:29:27;24.40;50.50
38167;DHT22;23980;51.902;12.832;2022-09-03T16:34:51;24.10;50.20
38167;DHT22;23980;51.902;12.832;2022-09-03T16:45:02;23.50;50.30
38167;DHT22;23980;51.902;12.832;2022-09-03T16:50:25;23.30;50.50
38167;DHT22;23980;51.902;12.832;2022-09-03T16:55:49;23.00;50.50
38167;DHT22;23980;51.902;12.832;2022-09-03T17:01:06;22.80;50.50
38167;DHT22;23980;51.902;12.832;2022-09-03T17:06:26;22.60;50.60
38167;DHT22;23980;51.902;12.832;2022-09-03T17:12:02;22.50;50.60
38167;DHT22;23980;51.902;12.832;2022-09-03T17:39:36;21.50;50.90
38167;DHT22;23980;51.902;12.832;2022-09-03T17:44:58;21.30;50.80
38167;DHT22;23980;51.902;12.832;2022-09-03T17:50:21;21.10;51.30
38167;DHT22;23980;51.902;12.832;2022-09-03T17:55:41;20.90;50.90
38167;DHT22;23980;51.902;12.832;2022-09-03T18:06:08;20.50;51.00
38167;DHT22;23980;51.902;12.832;2022-09-03T18:11:18;20.40;51.10
38167;DHT22;23980;51.902;12.832;2022-09-03T18:16:43;20.30;51.00
38167;DHT22;23980;51.902;12.832;2022-09-03T18:21:50;20.10;51.20
38167;DHT22;23980;51.902;12.832;2022-09-03T18:32:44;19.90;51.10
38167;DHT22;23980;51.902;12.832;2022-09-03T18:38:04;19.80;51.30
38167;DHT22;23980;51.902;12.832;2022-09-03T18:44:00;19.60;51.60
38167;DHT22;23980;51.902;12.832;2022-09-03T18:49:30;19.50;51.40
38167;DHT22;23980;51.902;12.832;2022-09-03T18:55:22;19.40;51.30
38167;DHT22;23980;51.902;12.832;2022-09-03T19:00:58;19.30;51.50
38167;DHT22;23980;51.902;12.832;2022-09-03T19:06:30;19.10;51.40
38167;DHT22;23980;51.902;12.832;2022-09-03T19:23:16;18.80;51.50
38167;DHT22;23980;51.902;12.832;2022-09-03T19:28:40;18.70;51.40
38167;DHT22;23980;51.902;12.832;2022-09-03T19:57:15;18.10;51.80
38167;DHT22;23980;51.902;12.832;2022-09-03T20:02:35;18.10;51.70
38167;DHT22;23980;51.902;12.832;2022-09-03T20:08:03;18.00;51.60
38167;DHT22;23980;51.902;12.832;2022-09-03T20:13:23;17.90;51.90
38167;DHT22;23980;51.902;12.832;2022-09-03T20:18:58;17.80;51.70
38167;DHT22;23980;51.902;12.832;2022-09-03T20:34:55;17.60;52.10
38167;DHT22;23980;51.902;12.832;2022-09-03T20:45:57;17.50;52.20
38167;DHT22;23980;51.902;12.832;2022-09-03T20:51:05;17.40;52.20
38167;DHT22;23980;51.902;12.832;2022-09-03T20:56:24;17.40;52.00
38167;DHT22;23980;51.902;12.832;2022-09-03T21:06:58;17.30;52.10
38167;DHT22;23980;51.902;12.832;2022-09-03T21:17:51;17.10;52.20
38167;DHT22;23980;51.902;12.832;2022-09-03T21:23:12;17.10;52.20
38167;DHT22;23980;51.902;12.832;2022-09-03T21:28:23;17.00;52.20
38167;DHT22;23980;51.902;12.832;2022-09-03T21:33:36;17.00;52.10
38167;DHT22;23980;51.902;12.832;2022-09-03T21:38:39;16.90;52.20
38167;DHT22;23980;51.902;12.832;2022-09-03T21:43:53;16.90;52.00
38167;DHT22;23980;51.902;12.832;2022-09-03T21:49:02;16.80;52.20
38167;DHT22;23980;51.902;12.832;2022-09-03T21:54:30;16.80;52.10
38167;DHT22;23980;51.902;12.832;2022-09-03T22:04:50;16.70;52.00
38167;DHT22;23980;51.902;12.832;2022-09-03T22:15:31;16.60;52.40
38167;DHT22;23980;51.902;12.832;2022-09-03T22:20:41;16.60;52.40
38167;DHT22;23980;51.902;12.832;2022-09-03T22:26:01;16.60;52.30
38167;DHT22;23980;51.902;12.832;2022-09-03T22:48:22;16.40;52.40
38167;DHT22;23980;51.902;12.832;2022-09-03T22:53:33;16.40;52.50
38167;DHT22;23980;51.902;12.832;2022-09-03T22:58:54;16.30;52.10
38167;DHT22;23980;51.902;12.832;2022-09-03T23:09:35;16.20;52.40
38167;DHT22;23980;51.902;12.832;2022-09-03T23:14:47;16.20;52.30
38167;DHT22;23980;51.902;12.832;2022-09-03T23:19:57;16.10;52.40
38167;DHT22;23980;51.902;12.832;2022-09-03T23:25:30;16.10;52.40
38167;DHT22;23980;51.902;12.832;2022-09-03T23:30:31;16.00;52.50
38167;DHT22;23980;51.902;12.832;2022-09-03T23:35:42;16.00;52.30
38167;DHT22;23980;51.902;12.832;2022-09-03T23:40:49;15.90;52.50
